createdAt,value
2022-12-15T00:00:51.225Z,29.77
2022-12-15T00:03:38.890Z,28.80
2022-12-15T00:06:26.701Z,30.13
2022-12-15T00:09:14.602Z,30.63
2022-12-15T00:12:02.595Z,30.53
2022-12-15T00:14:49.761Z,29.50
2022-12-15T00:17:37.349Z,31.82
2022-12-15T00:20:25.421Z,33.75
2022-12-15T00:23:12.771Z,33.80
2022-12-15T00:26:01.470Z,32.10
2022-12-15T00:28:48.927Z,34.03
2022-12-15T00:31:36.103Z,30.72
2022-12-15T00:34:24.220Z,32.35
2022-12-15T00:37:11.589Z,32.60
2022-12-15T00:39:41.223Z,30.70
2022-12-15T00:42:11.793Z,31.27
2022-12-15T00:44:41.254Z,24.03
2022-12-15T00:47:10.782Z,32.33
2022-12-15T00:49:58.157Z,30.40
2022-12-15T00:52:45.382Z,30.10
2022-12-15T00:55:32.159Z,30.10
2022-12-15T00:58:19.016Z,30.40
2022-12-15T01:01:06.064Z,29.30
2022-12-15T01:03:53.322Z,30.40
2022-12-15T01:06:40.781Z,30.60
2022-12-15T01:09:32.165Z,30.72
2022-12-15T01:12:19.511Z,32.03
2022-12-15T01:15:06.592Z,27.97
2022-12-15T01:17:53.909Z,30.27
2022-12-15T01:20:23.463Z,28.27
2022-12-15T01:22:55.792Z,28.17
2022-12-15T01:25:27.446Z,24.10
2022-12-15T01:27:57.266Z,28.70
2022-12-15T01:30:28.109Z,26.67
2022-12-15T01:32:57.874Z,29.60
2022-12-15T01:35:27.725Z,26.43
2022-12-15T01:37:57.415Z,29.80
2022-12-15T01:40:44.850Z,30.03
2022-12-15T01:43:23.908Z,25.23
2022-12-15T01:45:59.701Z,25.63
2022-12-15T01:48:32.205Z,27.80
2022-12-15T01:51:13.735Z,24.10
2022-12-15T01:54:03.976Z,23.70
2022-12-15T01:56:37.896Z,23.47
2022-12-15T01:59:10.892Z,25.73
2022-12-15T02:01:40.586Z,23.80
2022-12-15T02:04:12.469Z,25.67
2022-12-15T02:06:42.038Z,23.27
2022-12-15T02:09:11.620Z,25.77
2022-12-15T02:11:46.938Z,24.70
2022-12-15T02:14:19.727Z,25.50
2022-12-15T02:17:08.982Z,26.17
2022-12-15T02:19:58.008Z,23.23
2022-12-15T02:22:48.519Z,24.57
2022-12-15T02:25:45.399Z,24.87
2022-12-15T02:28:26.529Z,21.37
2022-12-15T02:31:25.566Z,21.17
2022-12-15T02:34:00.696Z,23.97
2022-12-15T02:36:36.720Z,23.10
2022-12-15T02:39:07.605Z,20.25
2022-12-15T02:41:46.116Z,22.77
2022-12-15T02:44:43.448Z,24.33
2022-12-15T02:47:27.593Z,23.63
2022-12-15T02:50:17.810Z,23.50
2022-12-15T02:53:02.060Z,21.77
2022-12-15T02:55:43.222Z,20.70
2022-12-15T03:01:05.423Z,22.10
2022-12-15T03:03:36.991Z,19.80
2022-12-15T03:06:07.412Z,20.43
2022-12-15T03:08:36.886Z,21.33
2022-12-15T03:11:06.960Z,22.45
2022-12-15T03:13:36.827Z,20.23
2022-12-15T03:16:07.170Z,19.90
2022-12-15T03:18:36.737Z,21.27
2022-12-15T03:21:06.848Z,19.92
2022-12-15T03:23:36.316Z,21.37
2022-12-15T03:26:06.687Z,18.40
2022-12-15T03:28:36.147Z,20.23
2022-12-15T03:31:07.227Z,18.25
2022-12-15T03:33:36.997Z,19.53
2022-12-15T03:36:07.555Z,19.83
2022-12-15T03:38:37.021Z,20.20
2022-12-15T03:41:07.186Z,19.60
2022-12-15T03:43:36.639Z,19.23
2022-12-15T03:46:07.307Z,21.13
2022-12-15T03:48:36.798Z,18.97
2022-12-15T03:51:06.693Z,18.63
2022-12-15T03:53:36.235Z,20.00
2022-12-15T03:56:07.165Z,18.35
2022-12-15T03:58:36.632Z,18.10
2022-12-15T04:01:21.733Z,20.65
2022-12-15T04:03:54.309Z,18.07
2022-12-15T04:06:23.169Z,18.07
2022-12-15T04:08:52.643Z,15.83
2022-12-15T04:11:22.481Z,16.87
2022-12-15T04:13:51.950Z,15.50
2022-12-15T04:16:21.560Z,14.93
2022-12-15T04:18:52.729Z,14.47
2022-12-15T04:21:22.515Z,16.30
2022-12-15T04:24:09.617Z,16.43
2022-12-15T04:26:56.885Z,16.37
2022-12-15T04:29:43.939Z,15.80
2022-12-15T04:32:31.422Z,15.60
2022-12-15T04:35:18.776Z,13.47
2022-12-15T04:38:06.378Z,13.97
2022-12-15T04:40:54.187Z,13.33
2022-12-15T04:43:41.651Z,13.48
2022-12-15T04:46:28.730Z,12.57
2022-12-15T04:49:16.387Z,14.27
2022-12-15T04:52:03.903Z,14.80
2022-12-15T04:54:50.669Z,13.57
2022-12-15T04:57:38.007Z,14.60
2022-12-15T05:00:25.898Z,14.77
2022-12-15T05:03:18.077Z,13.20
2022-12-15T05:06:01.472Z,14.33
2022-12-15T05:08:50.089Z,16.00
2022-12-15T05:11:37.832Z,14.78
2022-12-15T05:14:25.411Z,14.67
2022-12-15T05:17:13.403Z,14.53
2022-12-15T05:20:00.966Z,14.23
2022-12-15T05:22:48.191Z,13.33
2022-12-15T05:25:35.558Z,13.43
2022-12-15T05:28:27.056Z,15.08
2022-12-15T05:31:14.215Z,13.10
2022-12-15T05:33:43.766Z,12.83
2022-12-15T05:36:13.381Z,13.83
2022-12-15T05:38:42.912Z,15.33
2022-12-15T05:41:14.000Z,15.72
2022-12-15T05:46:13.020Z,13.93
2022-12-15T05:48:43.276Z,14.17
2022-12-15T05:51:14.277Z,15.90
2022-12-15T05:53:44.465Z,13.63
2022-12-15T05:56:15.672Z,13.73
2022-12-15T05:58:45.828Z,15.20
2022-12-15T06:01:20.050Z,16.05
2022-12-15T06:03:49.830Z,15.13
2022-12-15T06:06:19.423Z,15.30
2022-12-15T06:08:50.167Z,13.53
2022-12-15T06:11:22.100Z,13.53
2022-12-15T06:13:51.800Z,13.70
2022-12-15T06:16:23.047Z,13.53
2022-12-15T06:18:55.256Z,12.30
2022-12-15T06:21:28.241Z,13.78
2022-12-15T06:23:58.586Z,14.83
2022-12-15T06:26:31.344Z,13.93
2022-12-15T06:29:05.464Z,16.23
2022-12-15T06:31:35.042Z,14.63
2022-12-15T06:34:07.291Z,16.20
2022-12-15T06:36:37.177Z,16.07
2022-12-15T06:39:09.581Z,15.83
2022-12-15T06:41:40.058Z,15.83
2022-12-15T06:44:11.419Z,15.38
2022-12-15T06:46:41.055Z,16.63
2022-12-15T06:49:10.927Z,14.83
2022-12-15T06:51:41.334Z,13.37
2022-12-15T06:54:11.280Z,16.00
2022-12-15T06:56:40.790Z,16.67
2022-12-15T06:59:12.520Z,15.03
2022-12-15T07:01:43.075Z,13.67
2022-12-15T07:04:13.232Z,13.95
2022-12-15T07:06:42.985Z,13.23
2022-12-15T07:09:17.000Z,13.45
2022-12-15T07:11:48.228Z,12.23
2022-12-15T07:14:18.056Z,11.85
2022-12-15T07:16:47.647Z,11.13
2022-12-15T07:19:17.501Z,11.63
2022-12-15T07:21:47.515Z,10.70
2022-12-15T07:24:16.988Z,10.70
2022-12-15T07:26:46.547Z,12.63
2022-12-15T07:29:22.863Z,9.65
2022-12-15T07:31:49.435Z,9.57
2022-12-15T07:34:19.133Z,10.17
2022-12-15T07:36:52.449Z,9.47
2022-12-15T07:39:20.126Z,10.63
2022-12-15T07:41:49.613Z,9.73
2022-12-15T07:44:19.191Z,10.53
2022-12-15T07:46:49.416Z,9.07
2022-12-15T07:49:20.458Z,9.43
2022-12-15T07:51:50.312Z,9.40
2022-12-15T07:54:20.505Z,8.63
2022-12-15T07:56:50.800Z,9.53
2022-12-15T07:59:20.262Z,8.77
2022-12-15T08:01:50.168Z,7.40
2022-12-15T08:04:20.118Z,6.83
2022-12-15T08:06:51.091Z,7.77
2022-12-15T08:09:20.586Z,8.00
2022-12-15T08:11:50.550Z,7.20
2022-12-15T08:14:21.143Z,9.67
2022-12-15T08:16:51.507Z,8.83
2022-12-15T08:19:21.034Z,8.73
2022-12-15T08:21:50.705Z,6.77
2022-12-15T08:24:20.372Z,9.17
2022-12-15T08:26:50.692Z,7.87
2022-12-15T08:31:51.729Z,7.83
2022-12-15T08:34:24.163Z,7.93
2022-12-15T08:36:53.910Z,7.23
2022-12-15T08:39:23.371Z,7.70
2022-12-15T08:41:52.875Z,7.13
2022-12-15T08:44:22.789Z,4.90
2022-12-15T08:46:52.276Z,5.63
2022-12-15T08:49:22.711Z,6.77
2022-12-15T08:51:52.800Z,6.53
2022-12-15T08:54:22.738Z,5.80
2022-12-15T08:56:52.238Z,5.47
2022-12-15T08:59:21.983Z,4.80
2022-12-15T09:01:52.041Z,4.77
2022-12-15T09:04:21.772Z,5.07
2022-12-15T09:06:51.566Z,6.20
2022-12-15T09:09:21.637Z,5.78
2022-12-15T09:11:51.633Z,5.67
2022-12-15T09:14:27.256Z,6.23
2022-12-15T09:16:52.679Z,6.57
2022-12-15T09:19:22.405Z,5.77
2022-12-15T09:21:52.299Z,5.30
2022-12-15T09:24:32.289Z,6.67
2022-12-15T09:26:53.311Z,5.57
2022-12-15T09:29:23.145Z,5.90
2022-12-15T09:31:53.039Z,6.33
2022-12-15T09:34:22.540Z,5.17
2022-12-15T09:36:52.429Z,6.17
2022-12-15T09:39:21.910Z,6.83
2022-12-15T09:41:54.727Z,5.23
2022-12-15T09:44:27.547Z,6.07
2022-12-15T09:47:00.915Z,6.63
2022-12-15T09:49:48.558Z,7.27
2022-12-15T09:52:27.033Z,6.17
2022-12-15T09:54:59.087Z,5.75
2022-12-15T09:57:46.838Z,6.80
2022-12-15T10:00:25.138Z,7.53
2022-12-15T10:03:22.273Z,6.73
2022-12-15T10:06:18.399Z,6.70
2022-12-15T10:08:59.471Z,6.87
2022-12-15T10:11:41.120Z,5.60
2022-12-15T10:14:34.453Z,7.60
2022-12-15T10:17:23.612Z,6.05
2022-12-15T10:20:23.685Z,6.13
2022-12-15T10:22:55.389Z,6.63
2022-12-15T10:25:32.721Z,6.90
2022-12-15T10:28:29.272Z,7.27
2022-12-15T10:31:10.818Z,8.20
2022-12-15T10:36:17.143Z,6.00
2022-12-15T10:41:28.151Z,7.30
2022-12-15T10:43:58.224Z,7.30
2022-12-15T10:46:30.684Z,7.67
2022-12-15T10:49:03.069Z,7.87
2022-12-15T10:51:44.962Z,7.25
2022-12-15T10:54:18.283Z,7.78
2022-12-15T10:56:51.224Z,7.17
2022-12-15T10:59:35.314Z,7.77
2022-12-15T11:02:36.928Z,7.33
2022-12-15T11:07:59.568Z,6.37
2022-12-15T11:10:33.693Z,6.87
2022-12-15T11:13:15.535Z,6.47
2022-12-15T11:15:53.332Z,7.50
2022-12-15T11:18:45.574Z,6.87
2022-12-15T11:21:31.891Z,6.80
2022-12-15T11:24:04.727Z,7.97
2022-12-15T11:26:43.124Z,6.97
2022-12-15T11:29:30.674Z,7.10
2022-12-15T11:32:07.123Z,7.50
2022-12-15T11:34:41.751Z,7.17
2022-12-15T11:37:36.854Z,7.10
2022-12-15T11:40:31.216Z,7.00
2022-12-15T11:43:21.886Z,6.23
2022-12-15T11:46:09.621Z,6.78
2022-12-15T11:48:51.688Z,6.75
2022-12-15T11:51:26.970Z,6.40
2022-12-15T11:54:05.628Z,8.03
2022-12-15T11:56:53.420Z,7.87
2022-12-15T11:59:31.872Z,8.17
2022-12-15T12:02:25.743Z,7.63
2022-12-15T12:05:17.035Z,7.77
2022-12-15T12:07:52.560Z,6.73
2022-12-15T12:10:37.337Z,6.58
2022-12-15T12:13:29.473Z,7.50
2022-12-15T12:16:11.605Z,6.55
2022-12-15T12:18:50.440Z,5.83
2022-12-15T12:21:23.521Z,6.60
2022-12-15T12:23:56.715Z,7.53
2022-12-15T12:26:38.406Z,6.90
2022-12-15T12:29:17.025Z,6.57
2022-12-15T12:32:15.855Z,6.23
2022-12-15T12:35:31.023Z,6.53
2022-12-15T12:37:46.948Z,8.70
2022-12-15T12:40:21.052Z,7.40
2022-12-15T12:42:59.387Z,6.87
2022-12-15T12:45:35.014Z,7.10
2022-12-15T12:48:10.514Z,6.23
2022-12-15T12:50:40.410Z,7.17
2022-12-15T12:53:13.210Z,6.67
2022-12-15T12:55:43.868Z,7.90
2022-12-15T12:58:41.281Z,8.35
2022-12-15T13:01:14.384Z,7.80
2022-12-15T13:03:44.455Z,6.93
2022-12-15T13:06:35.207Z,7.05
2022-12-15T13:09:23.526Z,6.60
2022-12-15T13:11:56.583Z,7.27
2022-12-15T13:14:29.375Z,7.47
2022-12-15T13:17:26.119Z,6.47
2022-12-15T13:20:01.633Z,6.83
2022-12-15T13:22:36.336Z,6.33
2022-12-15T13:25:35.725Z,7.10
2022-12-15T13:28:27.108Z,7.12
2022-12-15T13:31:22.803Z,5.93
2022-12-15T13:33:57.992Z,6.60
2022-12-15T13:36:50.669Z,7.00
2022-12-15T13:39:22.777Z,6.30
2022-12-15T13:44:30.071Z,6.00
2022-12-15T13:47:09.492Z,6.73
2022-12-15T13:49:51.966Z,6.63
2022-12-15T13:52:59.485Z,5.65
2022-12-15T13:55:01.817Z,6.80
2022-12-15T13:57:34.613Z,5.53
2022-12-15T14:00:10.454Z,8.35
2022-12-15T14:02:42.058Z,7.20
2022-12-15T14:05:24.941Z,5.53
2022-12-15T14:07:57.952Z,6.50
2022-12-15T14:10:38.632Z,6.47
2022-12-15T14:15:51.423Z,7.50
2022-12-15T14:18:30.386Z,6.97
2022-12-15T14:21:02.122Z,6.07
2022-12-15T14:24:04.005Z,6.70
2022-12-15T14:26:16.939Z,6.60
2022-12-15T14:28:48.263Z,7.97
2022-12-15T14:31:25.322Z,7.65
2022-12-15T14:34:09.692Z,7.90
2022-12-15T14:36:42.109Z,7.13
2022-12-15T14:39:17.963Z,7.28
2022-12-15T14:41:51.305Z,7.20
2022-12-15T14:44:31.347Z,7.40
2022-12-15T14:47:01.018Z,7.25
2022-12-15T14:49:34.057Z,7.00
2022-12-15T14:52:06.752Z,8.20
2022-12-15T14:54:43.153Z,6.40
2022-12-15T14:57:18.779Z,8.33
2022-12-15T14:59:49.371Z,6.77
2022-12-15T15:02:24.764Z,6.17
2022-12-15T15:03:06.719Z,6.97
2022-12-15T15:03:09.428Z,6.40
2022-12-15T15:03:11.090Z,6.87
2022-12-15T15:04:59.899Z,6.63
2022-12-15T15:07:30.630Z,7.53
2022-12-15T15:10:02.264Z,6.80
2022-12-15T15:12:46.305Z,7.40
2022-12-15T15:15:19.053Z,8.05
2022-12-15T15:17:57.675Z,8.23
2022-12-15T15:20:30.621Z,7.23
2022-12-15T15:23:18.252Z,7.53
2022-12-15T15:25:56.596Z,5.70
2022-12-15T15:28:29.236Z,6.93
2022-12-15T15:31:03.062Z,7.40
2022-12-15T15:33:33.054Z,8.63
2022-12-15T15:36:04.987Z,6.93
2022-12-15T15:38:40.054Z,8.60
2022-12-15T15:41:24.019Z,9.67
2022-12-15T15:43:53.519Z,8.63
2022-12-15T15:46:26.180Z,8.40
2022-12-15T15:48:58.795Z,8.23
2022-12-15T15:51:31.023Z,10.43
2022-12-15T15:54:15.613Z,9.27
2022-12-15T15:56:45.138Z,9.67
2022-12-15T15:59:17.201Z,11.10
2022-12-15T16:01:49.741Z,11.63
2022-12-15T16:04:19.337Z,11.60
2022-12-15T16:06:50.005Z,12.17
2022-12-15T16:09:20.322Z,12.07
2022-12-15T16:11:50.710Z,12.10
2022-12-15T16:14:20.642Z,12.10
2022-12-15T16:16:50.192Z,12.90
2022-12-15T16:19:19.699Z,12.17
2022-12-15T16:21:50.897Z,15.30
2022-12-15T16:24:20.984Z,12.45
2022-12-15T16:26:51.779Z,11.10
2022-12-15T16:29:22.472Z,11.07
2022-12-15T16:31:52.384Z,10.70
2022-12-15T16:34:23.752Z,9.60
2022-12-15T16:36:53.551Z,9.87
2022-12-15T16:39:34.578Z,10.13
2022-12-15T16:42:04.506Z,11.48
2022-12-15T16:44:34.308Z,11.50
2022-12-15T16:47:03.769Z,14.90
2022-12-15T16:49:39.826Z,16.97
2022-12-15T16:52:06.233Z,14.10
2022-12-15T16:54:36.157Z,15.57
2022-12-15T16:57:10.520Z,13.22
2022-12-15T16:59:40.236Z,12.93
2022-12-15T17:02:19.353Z,13.50
2022-12-15T17:04:49.043Z,15.10
2022-12-15T17:07:20.650Z,16.77
2022-12-15T17:09:51.372Z,15.17
2022-12-15T17:12:21.095Z,17.90
2022-12-15T17:14:50.610Z,20.60
2022-12-15T17:17:21.192Z,16.43
2022-12-15T17:20:27.371Z,17.62
2022-12-15T17:22:24.010Z,17.20
2022-12-15T17:24:54.285Z,19.25
2022-12-15T17:27:28.010Z,16.37
2022-12-15T17:30:00.464Z,17.00
2022-12-15T17:32:29.948Z,18.17
2022-12-15T17:34:59.442Z,19.27
2022-12-15T17:37:34.919Z,16.60
2022-12-15T17:40:00.430Z,15.30
2022-12-15T17:42:29.900Z,20.00
2022-12-15T17:44:59.479Z,19.47
2022-12-15T17:47:30.460Z,17.93
2022-12-15T17:50:00.328Z,17.53
2022-12-15T17:52:34.898Z,17.50
2022-12-15T17:55:07.860Z,19.57
2022-12-15T17:57:37.321Z,17.90
2022-12-15T18:00:18.866Z,16.87
2022-12-15T18:02:49.065Z,18.23
2022-12-15T18:05:20.005Z,18.40
2022-12-15T18:07:55.479Z,19.60
2022-12-15T18:10:33.870Z,17.77
2022-12-15T18:13:04.393Z,16.40
2022-12-15T18:18:02.714Z,18.15
2022-12-15T18:20:32.266Z,18.23
2022-12-15T18:23:01.874Z,20.07
2022-12-15T18:25:31.966Z,19.80
2022-12-15T18:28:01.571Z,19.90
2022-12-15T18:30:31.496Z,19.13
2022-12-15T18:33:00.965Z,18.40
2022-12-15T18:35:33.572Z,19.70
2022-12-15T18:38:03.810Z,19.07
2022-12-15T18:40:33.306Z,29.77
2022-12-15T18:43:02.788Z,25.83
2022-12-15T18:45:32.446Z,23.20
2022-12-15T18:48:01.960Z,23.40
2022-12-15T18:50:31.557Z,24.53
2022-12-15T18:53:04.117Z,26.40
2022-12-15T18:55:33.925Z,25.23
2022-12-15T18:58:03.394Z,24.87
2022-12-15T19:00:34.278Z,23.53
2022-12-15T19:03:04.034Z,27.37
2022-12-15T19:05:33.647Z,26.47
2022-12-15T19:08:10.421Z,23.03
2022-12-15T19:10:43.045Z,24.93
2022-12-15T19:13:16.950Z,23.93
2022-12-15T19:15:46.838Z,25.57
2022-12-15T19:18:35.826Z,24.67
2022-12-15T19:21:35.564Z,26.95
2022-12-15T19:24:07.171Z,24.00
2022-12-15T19:26:36.660Z,24.60
2022-12-15T19:29:12.636Z,21.60
2022-12-15T19:31:42.208Z,24.27
2022-12-15T19:34:11.952Z,20.20
2022-12-15T19:36:42.011Z,21.60
2022-12-15T19:39:14.521Z,20.90
2022-12-15T19:41:44.137Z,24.87
2022-12-15T19:44:17.143Z,23.07
2022-12-15T19:46:47.295Z,24.33
2022-12-15T19:49:16.781Z,23.37
2022-12-15T19:51:46.363Z,25.10
2022-12-15T19:54:22.268Z,26.25
2022-12-15T19:56:51.767Z,28.43
2022-12-15T19:59:24.270Z,26.30
2022-12-15T20:01:54.492Z,25.33
2022-12-15T20:04:24.719Z,23.45
2022-12-15T20:06:54.337Z,28.87
2022-12-15T20:09:23.827Z,26.43
2022-12-15T20:11:53.347Z,25.27
2022-12-15T20:14:23.021Z,26.27
2022-12-15T20:16:52.562Z,25.17
2022-12-15T20:19:22.243Z,24.10
2022-12-15T20:21:51.896Z,28.67
2022-12-15T20:24:21.700Z,25.27
2022-12-15T20:26:51.246Z,25.10
2022-12-15T20:29:29.738Z,23.13
2022-12-15T20:32:00.622Z,23.63
2022-12-15T20:34:30.399Z,27.13
2022-12-15T20:37:00.214Z,23.70
2022-12-15T20:39:30.948Z,25.43
2022-12-15T20:42:00.617Z,25.72
2022-12-15T20:44:30.122Z,25.27
2022-12-15T20:46:59.593Z,26.00
2022-12-15T20:49:29.172Z,25.40
2022-12-15T20:51:58.841Z,28.87
2022-12-15T20:54:28.456Z,27.57
2022-12-15T20:56:57.910Z,25.47
2022-12-15T20:59:28.390Z,28.83
2022-12-15T21:01:58.432Z,29.87
2022-12-15T21:04:32.097Z,25.63
2022-12-15T21:07:01.937Z,29.67
2022-12-15T21:09:31.697Z,32.93
2022-12-15T21:12:07.342Z,32.03
2022-12-15T21:14:32.642Z,33.47
2022-12-15T21:17:02.161Z,29.83
2022-12-15T21:19:31.705Z,33.73
2022-12-15T21:22:02.326Z,32.17
2022-12-15T21:24:32.580Z,34.03
2022-12-15T21:27:02.224Z,34.63
2022-12-15T21:29:34.141Z,38.20
2022-12-15T21:32:03.832Z,33.13
2022-12-15T21:34:33.568Z,35.33
2022-12-15T21:37:04.069Z,33.83
2022-12-15T21:39:38.156Z,35.40
2022-12-15T21:42:11.271Z,35.77
2022-12-15T21:44:41.626Z,33.17
2022-12-15T21:47:46.715Z,31.87
2022-12-15T21:50:18.486Z,33.40
2022-12-15T21:52:48.704Z,35.27
2022-12-15T21:55:19.731Z,33.20
2022-12-15T21:57:49.335Z,32.80
2022-12-15T22:00:21.731Z,34.73
2022-12-15T22:02:53.637Z,36.08
2022-12-15T22:05:28.584Z,35.27
2022-12-15T22:08:01.358Z,33.80
2022-12-15T22:10:31.886Z,34.00
2022-12-15T22:13:01.780Z,35.78
2022-12-15T22:15:31.389Z,32.93
2022-12-15T22:18:01.509Z,32.43
2022-12-15T22:20:30.993Z,34.83
2022-12-15T22:23:00.500Z,35.80
2022-12-15T22:25:30.022Z,36.27
2022-12-15T22:27:59.694Z,35.43
2022-12-15T22:30:29.487Z,35.47
2022-12-15T22:32:59.009Z,36.13
2022-12-15T22:35:28.453Z,35.90
2022-12-15T22:37:57.970Z,36.73
2022-12-15T22:40:27.681Z,35.93
2022-12-15T22:42:58.831Z,36.00
2022-12-15T22:45:28.432Z,35.50
2022-12-15T22:47:58.180Z,35.17
2022-12-15T22:50:27.925Z,33.57
2022-12-15T22:52:57.798Z,36.20
2022-12-15T22:55:27.388Z,34.80
2022-12-15T22:58:05.569Z,33.83
2022-12-15T23:00:35.151Z,34.90
2022-12-15T23:03:07.688Z,33.47
2022-12-15T23:05:39.918Z,33.83
2022-12-15T23:08:09.899Z,33.10
2022-12-15T23:10:57.054Z,31.63
2022-12-15T23:13:26.617Z,35.40
2022-12-15T23:16:13.729Z,32.43
2022-12-15T23:18:43.273Z,30.00
2022-12-15T23:21:13.123Z,31.73
2022-12-15T23:23:42.917Z,29.80
2022-12-15T23:26:13.615Z,30.57
2022-12-15T23:28:44.434Z,33.10
2022-12-15T23:31:14.330Z,32.23
2022-12-15T23:33:43.909Z,32.70
2022-12-15T23:36:14.211Z,31.93
2022-12-15T23:38:44.654Z,34.25
2022-12-15T23:41:18.783Z,33.40
2022-12-15T23:43:48.546Z,31.63
2022-12-15T23:46:18.838Z,30.27
2022-12-15T23:48:48.469Z,34.67
2022-12-15T23:51:20.776Z,32.03
2022-12-15T23:53:50.350Z,34.13
2022-12-15T23:56:24.258Z,34.20
2022-12-15T23:58:58.946Z,33.83
